Time;durP1;ratioP1;P1;durP2;ratioP2;P2;SDS_P1;SDS_P2;PMS_P1;PMS_P2;Temp;Humidity;BMP_temperature;BMP_pressure;BME280_temperature;BME280_humidity;BME280_pressure;Samples;Min_cycle;Max_cycle;Signal;HPM_P1;HPM_P2
2022/09/27 00:00:30;;;;;;;7.60;3.75;;;;;;;13.74;71.49;97634.94;5112034;28;20142;-56
2022/09/27 00:02:56;;;;;;;7.18;3.70;;;;;;;13.71;71.41;97629.97;5112125;28;20582;-58
2022/09/27 00:05:23;;;;;;;8.07;3.40;;;;;;;13.70;71.47;97628.31;5112203;28;20077;-61
2022/09/27 00:07:49;;;;;;;8.75;3.50;;;;;;;13.67;71.67;97625.00;5112176;28;20090;-58
2022/09/27 00:10:16;;;;;;;7.63;3.65;;;;;;;13.66;71.57;97627.81;5111696;28;20387;-58
2022/09/27 00:12:43;;;;;;;8.90;3.40;;;;;;;13.64;71.55;97635.88;5112415;28;20048;-58
2022/09/27 00:15:09;;;;;;;7.03;3.15;;;;;;;13.63;71.64;97628.97;5108358;28;20130;-59
2022/09/27 00:17:37;;;;;;;7.57;3.25;;;;;;;13.62;71.64;97634.41;5111796;28;20039;-56
2022/09/27 00:20:06;;;;;;;5.20;2.53;;;;;;;13.61;71.74;97630.91;5111502;28;20047;-59
2022/09/27 00:22:33;;;;;;;6.50;2.90;;;;;;;13.61;71.65;97636.19;5111889;28;20142;-56
2022/09/27 00:25:00;;;;;;;8.60;3.30;;;;;;;13.60;71.68;97637.19;5111686;28;20112;-59
2022/09/27 00:27:26;;;;;;;5.22;2.88;;;;;;;13.60;71.65;97633.75;5111537;28;20044;-56
2022/09/27 00:29:53;;;;;;;7.82;2.40;;;;;;;13.60;71.75;97639.03;5111617;28;20039;-56
2022/09/27 00:32:20;;;;;;;8.32;2.63;;;;;;;13.57;71.78;97642.78;5111586;28;20044;-60
2022/09/27 00:34:46;;;;;;;6.63;2.53;;;;;;;13.58;71.57;97635.72;5111734;28;20134;-59
2022/09/27 00:37:13;;;;;;;6.70;2.50;;;;;;;13.57;71.69;97639.34;5111292;28;20514;-58
2022/09/27 00:39:39;;;;;;;5.63;2.40;;;;;;;13.55;71.80;97640.34;5111361;28;20130;-59
2022/09/27 00:42:10;;;;;;;4.95;2.22;;;;;;;13.53;71.52;97641.50;5111365;28;20055;-60
2022/09/27 00:44:37;;;;;;;5.13;2.45;;;;;;;13.53;71.78;97638.84;5111532;28;20043;-57
2022/09/27 00:47:23;;;;;;;5.78;2.05;;;;;;;13.48;71.43;97641.09;5109755;28;20544;-58
2022/09/27 00:49:58;;;;;;;6.13;2.63;;;;;;;13.50;71.49;97644.44;5110081;28;20069;-60
2022/09/27 00:52:31;;;;;;;5.90;2.25;;;;;;;13.50;71.42;97636.50;5111242;28;20048;-59
2022/09/27 00:55:03;;;;;;;5.18;2.33;;;;;;;13.48;71.44;97639.31;5110049;28;20043;-58
2022/09/27 00:57:30;;;;;;;4.43;2.30;;;;;;;13.49;71.65;97648.06;5111244;28;20495;-58
2022/09/27 01:00:11;;;;;;;5.25;1.95;;;;;;;13.42;71.36;97642.56;5111110;28;20089;-60
2022/09/27 01:02:41;;;;;;;2.90;2.15;;;;;;;13.43;71.62;97642.38;5111090;28;20043;-57
2022/09/27 01:05:11;;;;;;;7.13;2.38;;;;;;;13.41;71.68;97641.72;5109812;28;20043;-57
2022/09/27 01:07:37;;;;;;;6.10;2.22;;;;;;;13.41;71.74;97636.44;5111277;28;20043;-58
2022/09/27 01:10:06;;;;;;;7.30;2.10;;;;;;;13.40;71.67;97634.78;5111142;28;20494;-56
2022/09/27 01:13:05;;;;;;;5.88;2.05;;;;;;;13.36;71.56;97649.31;5111051;28;20048;-59
2022/09/27 01:15:50;;;;;;;6.07;2.15;;;;;;;13.37;71.65;97650.94;5110994;28;20077;-59
2022/09/27 01:18:40;;;;;;;9.30;2.40;;;;;;;13.37;71.57;97647.47;5109719;28;20449;-59
2022/09/27 01:21:40;;;;;;;7.93;2.80;;;;;;;13.35;71.50;97654.75;5110929;28;20039;-58
2022/09/27 01:24:30;;;;;;;7.55;2.60;;;;;;;13.33;71.83;97652.25;5109493;28;20533;-58
2022/09/27 01:27:22;;;;;;;5.80;2.15;;;;;;;13.33;71.48;97659.34;5103308;28;20043;-57
2022/09/27 01:30:12;;;;;;;9.77;3.07;;;;;;;13.36;71.53;97649.31;5080409;28;20031;-59
2022/09/27 01:33:03;;;;;;;6.32;2.72;;;;;;;13.30;71.60;97655.19;5091298;28;20047;-58
2022/09/27 01:35:42;;;;;;;7.88;3.13;;;;;;;13.32;71.53;97649.75;5106467;28;20196;-57
2022/09/27 01:38:17;;;;;;;6.65;3.30;;;;;;;13.29;71.72;97658.84;5107012;28;20079;-58
2022/09/27 01:40:56;;;;;;;6.97;3.33;;;;;;;13.28;71.73;97657.19;5110604;28;20062;-60
2022/09/27 01:43:33;;;;;;;10.88;2.60;;;;;;;13.29;71.69;97656.19;5110652;28;20051;-58
2022/09/27 01:46:20;;;;;;;9.50;2.92;;;;;;;13.26;71.92;97667.91;5110684;28;20040;-59
2022/09/27 01:48:49;;;;;;;6.82;2.58;;;;;;;13.27;71.80;97655.53;5105596;28;20032;-59
2022/09/27 01:51:26;;;;;;;7.80;2.90;;;;;;;13.25;71.69;97663.63;5113534;28;20395;-59
2022/09/27 01:53:59;;;;;;;8.65;2.45;;;;;;;13.25;71.94;97658.34;5114653;28;20051;-60
2022/09/27 01:56:31;;;;;;;;;;;;;;;13.24;71.65;97655.84;5115565;28;20467;-58
2022/09/27 01:59:06;;;;;;;6.25;2.00;;;;;;;13.28;71.71;97657.19;5114952;28;19967;-59
2022/09/27 02:01:37;;;;;;;6.25;2.30;;;;;;;13.24;71.80;97654.00;5114756;28;20088;-58
2022/09/27 02:04:07;;;;;;;5.45;1.90;;;;;;;13.23;71.87;97672.69;5114706;28;20047;-60
2022/09/27 02:06:38;;;;;;;7.38;2.70;;;;;;;13.21;71.83;97662.28;5114614;28;20052;-60
2022/09/27 02:09:11;;;;;;;6.32;2.20;;;;;;;13.19;71.53;97666.06;5113007;28;20064;-59
2022/09/27 02:11:42;;;;;;;11.90;2.20;;;;;;;13.20;71.90;97667.69;5111292;28;20039;-58
2022/09/27 02:14:18;;;;;;;6.85;1.95;;;;;;;13.16;71.68;97664.56;5146196;27;20040;-58
2022/09/27 02:16:50;;;;;;;8.05;2.10;;;;;;;13.16;71.55;97668.00;5112972;28;20475;-58
2022/09/27 02:19:29;;;;;;;3.78;1.48;;;;;;;13.14;71.72;97662.06;5113869;28;20044;-58
2022/09/27 02:22:17;;;;;;;5.50;2.05;;;;;;;13.08;71.44;97670.59;5112849;28;20104;-59
2022/09/27 02:24:52;;;;;;;6.72;1.58;;;;;;;13.09;71.83;97663.50;5113800;28;20089;-58
2022/09/27 02:27:28;;;;;;;10.68;2.28;;;;;;;13.07;71.50;97671.59;5112746;28;20075;-58
2022/09/27 02:30:04;;;;;;;5.47;1.67;;;;;;;13.06;71.52;97663.81;5112600;28;20090;-58
2022/09/27 02:32:32;;;;;;;5.03;1.55;;;;;;;13.06;71.84;97672.56;5113917;28;20113;-59
2022/09/27 02:35:04;;;;;;;5.05;1.67;;;;;;;13.03;71.62;97665.78;5112655;28;20044;-58
2022/09/27 02:37:32;;;;;;;6.50;1.48;;;;;;;13.02;71.73;97663.31;5112687;28;20054;-58
2022/09/27 02:39:59;;;;;;;4.35;1.88;;;;;;;13.00;71.57;97660.81;5113721;28;20104;-57
2022/09/27 02:42:27;;;;;;;3.47;1.65;;;;;;;12.98;71.58;97664.59;5113805;28;20101;-59
2022/09/27 02:44:53;;;;;;;4.57;1.50;;;;;;;12.96;72.04;97669.19;5113470;28;20050;-59
2022/09/27 02:47:39;;;;;;;5.13;1.80;;;;;;;12.91;71.68;97667.03;5113903;28;20040;-57
2022/09/27 02:50:24;;;;;;;3.85;1.58;;;;;;;12.92;71.64;97673.97;5113656;28;20114;-56
2022/09/27 02:53:10;;;;;;;5.45;1.92;;;;;;;12.88;71.38;97670.81;5113599;28;20039;-60
2022/09/27 02:55:51;;;;;;;4.25;1.17;;;;;;;12.84;71.52;97674.75;5113673;28;20056;-59
2022/09/27 02:58:43;;;;;;;4.30;1.67;;;;;;;12.80;71.69;97664.63;5112009;28;20035;-59
2022/09/27 03:01:47;;;;;;;4.80;1.50;;;;;;;12.78;71.51;97664.78;5113413;28;20079;-57
2022/09/27 03:04:24;;;;;;;3.47;1.55;;;;;;;12.75;71.70;97665.09;5113517;28;20096;-58
2022/09/27 03:06:52;;;;;;;3.17;1.30;;;;;;;12.77;71.73;97665.78;5113460;28;20047;-55
2022/09/27 03:09:20;;;;;;;6.60;1.80;;;;;;;12.75;71.93;97665.09;5111730;28;20476;-58
2022/09/27 03:11:47;;;;;;;2.72;1.60;;;;;;;12.73;72.07;97659.13;5113201;28;20107;-58
2022/09/27 03:14:14;;;;;;;2.97;1.77;;;;;;;12.71;72.23;97664.56;5113040;28;20047;-59
2022/09/27 03:16:40;;;;;;;5.15;2.05;;;;;;;12.71;72.11;97661.91;5113290;28;20069;-58
2022/09/27 03:19:08;;;;;;;3.15;1.40;;;;;;;12.70;71.98;97668.19;5112879;28;20066;-57
2022/09/27 03:21:35;;;;;;;3.22;1.80;;;;;;;12.69;71.97;97661.25;5111812;28;20059;-59
2022/09/27 03:24:02;;;;;;;4.00;1.67;;;;;;;12.68;71.83;97670.16;5112899;28;20078;-56
2022/09/27 03:26:28;;;;;;;4.07;1.48;;;;;;;12.67;72.00;97672.97;5112847;28;20040;-58
2022/09/27 03:28:55;;;;;;;3.25;1.55;;;;;;;12.66;71.92;97673.91;5112521;28;20083;-59
2022/09/27 03:31:21;;;;;;;4.38;1.60;;;;;;;12.66;71.70;97671.28;5111791;28;20085;-60
2022/09/27 03:33:48;;;;;;;3.78;1.23;;;;;;;12.63;71.85;97678.53;5112930;28;20130;-56
2022/09/27 03:36:15;;;;;;;3.47;1.77;;;;;;;12.61;71.65;97675.22;5112882;28;20093;-57
2022/09/27 03:38:41;;;;;;;6.15;1.52;;;;;;;12.61;71.65;97671.75;5112460;28;20392;-58
2022/09/27 03:41:08;;;;;;;4.78;1.67;;;;;;;12.57;71.54;97673.88;5112487;28;20040;-57
2022/09/27 03:43:34;;;;;;;5.07;1.52;;;;;;;12.55;71.64;97680.25;5111377;28;20055;-59
2022/09/27 03:46:01;;;;;;;3.08;2.00;;;;;;;12.52;71.86;97673.47;5112409;28;20083;-58
2022/09/27 03:48:29;;;;;;;3.72;1.50;;;;;;;12.50;71.95;97676.28;5112339;28;20055;-55
2022/09/27 03:50:56;;;;;;;3.70;1.77;;;;;;;12.49;71.72;97674.63;5112351;28;20172;-59
2022/09/27 03:53:23;;;;;;;3.90;1.65;;;;;;;12.48;71.87;97677.41;5112428;28;20368;-56
2022/09/27 03:55:50;;;;;;;7.22;1.67;;;;;;;12.46;71.79;97682.00;5112231;28;20083;-56
2022/09/27 03:58:16;;;;;;;2.90;1.27;;;;;;;12.46;71.84;97679.38;5112346;28;20411;-60
2022/09/27 04:00:45;;;;;;;2.90;1.30;;;;;;;12.42;71.98;97680.66;5112279;28;20079;-57
2022/09/27 04:03:12;;;;;;;3.38;1.27;;;;;;;12.41;71.69;97679.00;5112447;28;20453;-57
2022/09/27 04:05:38;;;;;;;4.38;1.83;;;;;;;12.40;71.65;97685.28;5110801;28;20078;-57
2022/09/27 04:08:06;;;;;;;3.40;1.25;;;;;;;12.37;71.73;97681.09;5110666;28;20083;-57
2022/09/27 04:10:33;;;;;;;3.88;1.40;;;;;;;12.35;71.90;97683.91;5110505;28;20088;-58
2022/09/27 04:12:59;;;;;;;3.53;1.90;;;;;;;12.34;71.99;97681.41;5111890;28;20075;-53
2022/09/27 04:15:26;;;;;;;3.58;1.83;;;;;;;12.33;71.87;97679.72;5112011;28;20044;-57
2022/09/27 04:17:52;;;;;;;1.88;1.48;;;;;;;12.32;71.64;97675.44;5112056;28;20051;-57
2022/09/27 04:20:19;;;;;;;3.80;1.30;;;;;;;12.30;71.91;97674.78;5111714;28;20070;-55
2022/09/27 04:22:46;;;;;;;3.42;1.20;;;;;;;12.29;71.75;97673.13;5111882;28;20039;-56
2022/09/27 04:25:12;;;;;;;5.47;1.23;;;;;;;12.28;71.40;97676.72;5111760;28;20486;-59
2022/09/27 04:27:44;;;;;;;2.92;1.77;;;;;;;12.24;71.10;97686.75;5111699;28;20039;-59
2022/09/27 04:30:12;;;;;;;3.13;1.05;;;;;;;12.22;71.51;97696.59;5111727;28;20044;-59
2022/09/27 04:32:43;;;;;;;4.03;0.95;;;;;;;12.18;71.33;97705.81;5111645;28;20552;-56
2022/09/27 04:37:57;;;;;;;2.97;1.27;;;;;;;12.15;71.79;97703.47;5111557;28;20092;-57
2022/09/27 04:40:24;;;;;;;4.75;1.17;;;;;;;12.13;71.86;97706.25;5110261;28;20069;-60
2022/09/27 04:42:51;;;;;;;5.22;1.40;;;;;;;12.11;71.90;97709.03;5111350;28;20471;-58
2022/09/27 04:45:18;;;;;;;2.90;1.63;;;;;;;12.10;71.89;97715.31;5110112;28;20459;-59
2022/09/27 04:47:49;;;;;;;5.82;1.25;;;;;;;12.09;71.97;97718.09;5110213;28;20083;-55
2022/09/27 04:50:17;;;;;;;3.20;1.70;;;;;;;12.08;72.05;97719.06;5111316;28;20051;-60
2022/09/27 04:52:43;;;;;;;5.13;2.30;;;;;;;12.07;72.14;97715.59;5111503;28;20497;-59
2022/09/27 04:55:10;;;;;;;3.25;1.50;;;;;;;12.07;71.83;97728.78;5111468;28;20100;-58
2022/09/27 04:57:36;;;;;;;3.25;1.30;;;;;;;12.05;71.96;97714.03;5111349;28;20092;-56
2022/09/27 05:00:04;;;;;;;2.50;1.13;;;;;;;12.04;71.91;97718.47;5111581;28;20082;-58
2022/09/27 05:02:30;;;;;;;3.42;1.20;;;;;;;12.03;71.83;97716.03;5111633;28;20044;-58
2022/09/27 05:04:58;;;;;;;2.40;1.45;;;;;;;12.01;71.89;97724.06;5111475;28;20051;-58
2022/09/27 05:07:25;;;;;;;4.05;1.30;;;;;;;11.99;72.02;97728.66;5111401;28;20515;-58
2022/09/27 05:09:52;;;;;;;4.15;1.50;;;;;;;11.97;72.00;97730.63;5111065;28;20075;-57
2022/09/27 05:12:19;;;;;;;4.05;1.30;;;;;;;11.97;71.94;97733.25;5111044;28;20454;-55
2022/09/27 05:14:46;;;;;;;4.78;1.30;;;;;;;11.96;72.24;97739.50;5111031;28;20042;-58
2022/09/27 05:17:13;;;;;;;2.95;1.13;;;;;;;11.94;71.81;97739.66;5110952;28;20040;-56
2022/09/27 05:19:40;;;;;;;5.07;1.90;;;;;;;11.94;72.13;97742.28;5111169;28;20108;-58
2022/09/27 05:22:06;;;;;;;4.78;1.77;;;;;;;11.93;71.96;97737.16;5110979;28;20461;-58
2022/09/27 05:24:33;;;;;;;6.05;1.33;;;;;;;11.91;72.06;97745.22;5113751;28;20526;-58
2022/09/27 05:27:00;;;;;;;3.97;1.30;;;;;;;11.89;71.99;97744.50;5115281;28;20055;-56
2022/09/27 05:29:27;;;;;;;4.18;1.23;;;;;;;11.89;71.88;97741.06;5113760;28;20047;-58
2022/09/27 05:31:54;;;;;;;3.47;1.20;;;;;;;11.86;72.09;97745.63;5113841;28;20079;-58
2022/09/27 05:34:21;;;;;;;4.63;0.88;;;;;;;11.84;72.15;97749.41;5115466;28;20051;-59
2022/09/27 05:36:48;;;;;;;3.45;1.00;;;;;;;11.82;72.01;97741.63;5115166;28;20078;-59
2022/09/27 05:39:16;;;;;;;6.65;1.08;;;;;;;11.81;71.60;97737.34;5113649;28;20194;-58
2022/09/27 05:41:42;;;;;;;1.00;0.70;;;;;;;11.79;71.43;97749.00;5114688;28;20069;-60
2022/09/27 05:44:09;;;;;;;2.00;0.82;;;;;;;11.76;71.25;97752.75;5114381;28;20043;-58
2022/09/27 05:46:37;;;;;;;5.25;1.30;;;;;;;11.71;71.44;97750.53;5114822;28;20091;-58
2022/09/27 05:49:04;;;;;;;6.32;0.82;;;;;;;11.68;71.49;97752.66;5114746;28;20454;-59
2022/09/27 05:51:31;;;;;;;2.30;0.75;;;;;;;11.64;71.50;97752.13;5113386;28;20126;-58
2022/09/27 05:53:58;;;;;;;3.30;0.80;;;;;;;11.62;71.58;97766.41;5114828;28;20047;-59
2022/09/27 05:56:25;;;;;;;4.78;0.80;;;;;;;11.59;71.79;97768.34;5114503;28;20083;-57
2022/09/27 05:58:51;;;;;;;2.80;0.82;;;;;;;11.55;72.01;97761.69;5114351;28;20078;-58
2022/09/27 06:01:18;;;;;;;3.90;0.80;;;;;;;11.55;72.17;97776.69;5114821;28;20051;-58
2022/09/27 06:03:46;;;;;;;3.83;1.00;;;;;;;11.55;72.36;97768.78;5114561;28;20059;-58
2022/09/27 06:06:14;;;;;;;3.10;1.13;;;;;;;11.53;72.60;97776.84;5114503;28;20077;-57
2022/09/27 06:08:40;;;;;;;1.75;0.82;;;;;;;11.55;72.72;97760.88;5114227;28;20055;-58
2022/09/27 06:11:11;;;;;;;3.03;1.00;;;;;;;11.55;72.63;97768.78;5114187;28;20075;-60
2022/09/27 06:13:38;;;;;;;3.47;1.40;;;;;;;11.58;72.71;97768.50;5114453;27;20047;-57
2022/09/27 06:16:06;;;;;;;2.50;1.10;;;;;;;11.58;72.57;97771.97;5114317;28;20055;-59
2022/09/27 06:18:33;;;;;;;5.15;0.95;;;;;;;11.60;72.67;97772.63;5112873;28;20043;-56
2022/09/27 06:21:01;;;;;;;2.03;1.42;;;;;;;11.62;72.56;97771.69;5147027;27;20559;-58
2022/09/27 06:23:31;;;;;;;1.75;1.40;;;;;;;11.63;72.53;97779.44;5114019;28;20138;-59
2022/09/27 06:26:03;;;;;;;4.03;1.10;;;;;;;11.62;72.52;97772.50;5113923;28;20043;-58
2022/09/27 06:28:31;;;;;;;1.65;0.93;;;;;;;11.64;72.57;97767.94;5113638;28;20083;-59
2022/09/27 06:31:00;;;;;;;3.28;1.20;;;;;;;11.66;72.63;97778.34;5112833;28;20055;-59
2022/09/27 06:33:27;;;;;;;3.28;1.20;;;;;;;11.66;72.75;97775.69;5113918;28;20053;-59
2022/09/27 06:35:54;;;;;;;4.95;1.25;;;;;;;11.67;72.91;97785.25;5113610;28;20380;-59
2022/09/27 06:38:21;;;;;;;5.22;1.30;;;;;;;11.67;72.96;97780.81;5113453;28;20511;-59
2022/09/27 06:40:48;;;;;;;3.22;1.10;;;;;;;11.69;72.86;97789.41;5146542;27;20043;-59
2022/09/27 06:43:18;;;;;;;4.20;1.40;;;;;;;11.70;72.84;97790.25;5113739;28;20095;-59
2022/09/27 06:45:46;;;;;;;4.25;1.80;;;;;;;11.72;73.03;97789.13;5113720;28;20108;-59
2022/09/27 06:48:14;;;;;;;7.25;1.25;;;;;;;11.75;73.10;97795.91;5112169;28;20065;-59
2022/09/27 06:50:43;;;;;;;2.55;1.50;;;;;;;11.79;73.07;97799.09;5113464;28;20077;-59
2022/09/27 06:53:12;;;;;;;1.92;0.93;;;;;;;11.80;72.98;97804.22;5112440;28;20043;-58
2022/09/27 06:55:39;;;;;;;8.13;1.45;;;;;;;11.84;73.07;97817.94;5112432;28;20097;-58
2022/09/27 07:00:54;;;;;;;4.10;1.15;;;;;;;11.90;73.00;97809.47;5113771;28;20088;-58
2022/09/27 07:03:22;;;;;;;4.75;1.17;;;;;;;11.93;72.81;97821.53;5113261;28;20131;-59
2022/09/27 07:05:57;;;;;;;3.05;1.40;;;;;;;11.92;72.69;97825.94;5111898;28;20492;-58
2022/09/27 07:08:27;;;;;;;7.70;1.10;;;;;;;11.98;72.68;97830.66;5112902;28;20531;-57
2022/09/27 07:10:59;;;;;;;1.90;1.20;;;;;;;12.01;72.81;97826.91;5111956;28;20043;-58
2022/09/27 07:13:28;;;;;;;2.13;1.00;;;;;;;12.05;72.81;97830.94;5113054;28;20120;-59
2022/09/27 07:15:55;;;;;;;4.15;1.10;;;;;;;12.08;72.66;97820.09;5112953;28;20090;-59
2022/09/27 07:18:21;;;;;;;3.75;1.27;;;;;;;12.11;72.93;97830.34;5112965;28;20087;-59
2022/09/27 07:20:49;;;;;;;4.00;1.15;;;;;;;12.16;73.01;97834.38;5113236;28;20113;-59
2022/09/27 07:23:16;;;;;;;5.80;1.15;;;;;;;12.21;73.02;97832.13;5113080;28;20043;-59
2022/09/27 07:25:42;;;;;;;5.80;1.10;;;;;;;12.26;72.96;97837.78;5112765;28;20369;-58
2022/09/27 07:28:14;;;;;;;6.10;1.40;;;;;;;12.31;72.68;97832.91;5112573;28;20086;-59
2022/09/27 07:30:47;;;;;;;5.80;1.33;;;;;;;12.37;72.69;97837.59;5113048;27;20059;-58
2022/09/27 07:33:14;;;;;;;3.92;1.33;;;;;;;12.45;72.46;97846.59;5112943;28;20062;-58
2022/09/27 07:35:42;;;;;;;5.20;1.10;;;;;;;12.49;72.26;97845.31;5112728;28;20044;-59
2022/09/27 07:38:12;;;;;;;2.50;0.90;;;;;;;12.52;71.76;97847.66;5111526;28;20070;-59
2022/09/27 07:40:44;;;;;;;3.55;1.15;;;;;;;12.53;71.98;97849.34;5112502;28;20052;-59
2022/09/27 07:43:11;;;;;;;2.83;1.00;;;;;;;12.59;72.59;97854.00;5112489;28;20055;-58
2022/09/27 07:45:37;;;;;;;8.95;1.27;;;;;;;12.64;72.55;97849.13;5111807;27;20090;-58
2022/09/27 07:48:06;;;;;;;6.55;1.10;;;;;;;12.70;72.32;97860.06;5112280;28;20453;-61
2022/09/27 07:50:32;;;;;;;4.28;1.20;;;;;;;12.76;72.50;97855.00;5112447;28;20043;-58
2022/09/27 07:52:59;;;;;;;3.47;1.08;;;;;;;12.84;72.55;97856.94;5112488;28;20048;-58
2022/09/27 07:55:26;;;;;;;3.83;1.02;;;;;;;12.92;72.73;97865.88;5112210;28;20486;-58
2022/09/27 07:58:02;;;;;;;4.28;1.05;;;;;;;12.99;72.78;97869.59;5112467;28;20083;-59
2022/09/27 08:00:29;;;;;;;3.45;1.08;;;;;;;13.12;72.66;97870.06;5112140;28;20058;-59
2022/09/27 08:02:55;;;;;;;2.25;0.90;;;;;;;13.21;71.88;97878.91;5112592;28;20067;-60
2022/09/27 08:05:22;;;;;;;8.85;1.10;;;;;;;13.27;71.71;97878.28;5112001;28;20082;-58
2022/09/27 08:07:54;;;;;;;5.00;1.63;;;;;;;13.32;70.68;97884.94;5112062;28;20090;-56
2022/09/27 08:10:20;;;;;;;1.75;0.88;;;;;;;13.35;70.78;97874.88;5110769;28;20091;-58
2022/09/27 08:12:47;;;;;;;2.65;0.82;;;;;;;13.35;70.46;97869.59;5111994;28;20051;-59
2022/09/27 08:15:14;;;;;;;3.83;1.05;;;;;;;13.35;70.20;97879.34;5111933;28;20334;-54
2022/09/27 08:17:41;;;;;;;3.05;0.95;;;;;;;13.34;70.12;97878.50;5111783;28;20081;-59
2022/09/27 08:20:08;;;;;;;3.15;0.75;;;;;;;13.32;69.82;97885.78;5110317;28;20137;-56
2022/09/27 08:22:39;;;;;;;4.47;0.93;;;;;;;13.28;69.48;97893.16;5111646;28;20050;-56
2022/09/27 08:25:06;;;;;;;3.10;0.90;;;;;;;13.27;69.88;97893.31;5111713;28;20495;-60
2022/09/27 08:27:33;;;;;;;3.95;1.40;;;;;;;13.27;69.97;97890.69;5110595;28;20079;-57
2022/09/27 08:29:59;;;;;;;6.57;1.20;;;;;;;13.26;70.26;97896.94;5111360;28;20059;-58
2022/09/27 08:32:27;;;;;;;4.00;1.20;;;;;;;13.26;70.46;97897.78;5111698;28;20511;-59
2022/09/27 08:34:54;;;;;;;5.78;0.80;;;;;;;13.28;70.28;97903.72;5111560;28;20073;-57
2022/09/27 08:37:20;;;;;;;4.93;1.17;;;;;;;13.31;70.10;97905.25;5111637;28;20487;-59
2022/09/27 08:39:47;;;;;;;2.03;0.80;;;;;;;13.34;70.43;97901.47;5111101;28;20126;-56
2022/09/27 08:42:22;;;;;;;6.18;1.10;;;;;;;13.38;70.80;97913.41;5111364;28;20134;-58
2022/09/27 08:45:16;;;;;;;4.40;1.08;;;;;;;13.41;69.74;97907.81;5111362;28;20450;-57
2022/09/27 08:47:54;;;;;;;;;;;;;;;13.51;69.96;97907.75;5112133;28;20419;-59
2022/09/27 08:50:33;;;;;;;5.45;0.88;;;;;;;13.62;69.69;97907.53;5111415;27;20353;-58
2022/09/27 08:53:24;;;;;;;3.17;0.88;;;;;;;13.67;69.14;97915.81;5111497;28;20055;-59
2022/09/27 08:55:53;;;;;;;4.20;0.90;;;;;;;13.78;69.75;97913.91;5111217;28;20090;-55
2022/09/27 08:58:27;;;;;;;4.43;0.80;;;;;;;13.84;69.56;97912.47;5109908;28;20039;-55
2022/09/27 09:01:00;;;;;;;3.30;1.20;;;;;;;13.87;68.82;97909.53;5111244;28;20047;-58
2022/09/27 09:03:28;;;;;;;;;;;;;;;13.88;67.57;97916.47;5110508;28;20488;-56
2022/09/27 09:06:03;;;;;;;3.33;0.82;;;;;;;13.90;67.22;97911.84;5111013;28;19920;-57
2022/09/27 09:08:37;;;;;;;3.78;0.80;;;;;;;13.91;67.87;97916.97;5111496;28;20048;-57
2022/09/27 09:14:47;;;;;;;2.28;0.70;;;;;;;13.90;67.59;97912.69;5111112;28;20442;-59
2022/09/27 09:17:32;;;;;;;3.45;0.63;;;;;;;13.93;68.59;97907.09;5111232;28;20171;-53
2022/09/27 09:20:20;;;;;;;3.70;1.00;;;;;;;13.90;67.65;97912.69;5110884;28;20090;-58
2022/09/27 09:23:17;;;;;;;4.18;0.93;;;;;;;13.93;67.60;97907.09;5110857;28;20484;-58
2022/09/27 09:25:55;;;;;;;3.92;0.82;;;;;;;13.99;67.75;97903.00;5110875;28;20116;-58
2022/09/27 09:28:39;;;;;;;4.68;1.10;;;;;;;14.01;67.57;97902.81;5109537;28;20044;-58
2022/09/27 09:31:22;;;;;;;3.15;1.08;;;;;;;14.10;68.78;97904.56;5110674;28;20097;-59
2022/09/27 09:34:09;;;;;;;3.25;0.90;;;;;;;14.13;67.56;97900.75;5111091;28;20077;-56
2022/09/27 09:36:57;;;;;;;3.20;1.20;;;;;;;14.21;67.29;97898.16;5110856;28;20047;-59
2022/09/27 09:40:03;;;;;;;2.92;1.00;;;;;;;14.29;67.29;97897.38;5109427;28;20055;-59
2022/09/27 09:42:39;;;;;;;2.78;0.90;;;;;;;14.38;67.68;97901.72;5087848;28;20048;-58
2022/09/27 09:45:19;;;;;;;5.25;1.00;;;;;;;14.40;66.64;97901.56;5104682;28;20425;-56
2022/09/27 09:47:53;;;;;;;1.33;0.75;;;;;;;14.45;67.04;97902.75;5109518;28;20047;-58
2022/09/27 09:50:31;;;;;;;2.78;1.00;;;;;;;14.45;66.36;97902.75;5110851;28;20112;-59
2022/09/27 09:53:28;;;;;;;1.85;0.80;;;;;;;14.48;66.41;97901.59;5109573;28;20101;-57
2022/09/27 09:56:01;;;;;;;4.05;0.75;;;;;;;14.49;66.43;97902.41;5102044;28;20452;-55
2022/09/27 09:58:35;;;;;;;;;;;;;;;14.49;66.28;97899.75;5111254;28;20039;-55
2022/09/27 10:01:18;;;;;;;3.53;0.90;;;;;;;14.50;65.85;97893.50;5110787;28;20022;-55
2022/09/27 10:03:45;;;;;;;9.00;1.23;;;;;;;14.53;66.82;97901.09;5109433;28;20131;-54
2022/09/27 10:06:14;;;;;;;3.85;0.88;;;;;;;14.51;66.74;97903.94;5109352;28;20048;-57
2022/09/27 10:08:41;;;;;;;2.65;1.00;;;;;;;14.53;66.83;97904.59;5110226;28;20082;-55
2022/09/27 10:11:19;;;;;;;3.33;1.05;;;;;;;14.52;65.94;97897.66;5114342;28;20083;-53
2022/09/27 10:13:46;;;;;;;3.28;1.00;;;;;;;14.55;66.56;97899.16;5113229;28;20075;-55
2022/09/27 10:16:16;;;;;;;2.65;0.80;;;;;;;14.54;65.58;97894.84;5114772;28;20055;-58
2022/09/27 10:18:43;;;;;;;2.97;1.00;;;;;;;14.53;65.72;97887.88;5114225;28;20373;-56
2022/09/27 10:21:26;;;;;;;2.42;0.70;;;;;;;14.50;66.03;97888.22;5114215;28;20097;-51
2022/09/27 10:24:14;;;;;;;6.35;0.85;;;;;;;14.55;66.84;97893.84;5113080;28;20090;-57
2022/09/27 10:26:47;;;;;;;2.85;0.80;;;;;;;14.68;67.20;97896.03;5114343;28;20398;-53
2022/09/27 10:29:19;;;;;;;3.65;0.85;;;;;;;14.76;65.85;97885.50;5114244;28;20104;-55
2022/09/27 10:31:47;;;;;;;4.03;1.10;;;;;;;14.87;66.42;97887.03;5113980;28;20055;-54
2022/09/27 10:34:20;;;;;;;2.95;0.98;;;;;;;14.95;66.54;97891.53;5113867;28;20044;-53
2022/09/27 10:37:01;;;;;;;4.55;0.90;;;;;;;15.05;65.90;97889.56;5114102;28;20120;-55
2022/09/27 10:39:28;;;;;;;3.47;0.70;;;;;;;15.23;67.32;97889.44;5113658;28;20083;-57
2022/09/27 10:41:54;;;;;;;1.88;0.73;;;;;;;15.40;67.78;97885.97;5113805;27;20135;-59
2022/09/27 10:44:31;;;;;;;1.92;0.93;;;;;;;15.59;65.97;97884.81;5113618;28;20048;-55
2022/09/27 10:47:06;;;;;;;3.35;1.10;;;;;;;15.85;66.12;97886.44;5113825;28;20051;-57
2022/09/27 10:49:38;;;;;;;1.58;0.60;;;;;;;16.06;64.84;97877.13;5113520;28;20087;-57
2022/09/27 10:52:14;;;;;;;3.30;1.10;;;;;;;16.26;64.75;97878.41;5113666;28;20047;-58
2022/09/27 10:54:50;;;;;;;5.28;0.90;;;;;;;16.42;64.22;97885.47;5113434;28;20044;-57
2022/09/27 10:57:20;;;;;;;2.90;0.70;;;;;;;16.48;62.14;97880.50;5113489;28;20083;-58
2022/09/27 10:59:53;;;;;;;2.53;0.77;;;;;;;16.46;60.61;97887.78;5112041;28;20051;-58
2022/09/27 11:02:28;;;;;;;2.10;0.68;;;;;;;16.35;60.16;97887.19;5113439;27;20071;-60
2022/09/27 11:05:12;;;;;;;2.33;0.80;;;;;;;16.21;60.01;97891.38;5113218;28;20083;-59
2022/09/27 11:07:52;;;;;;;2.05;0.63;;;;;;;16.09;61.25;97890.06;5112113;28;20499;-59
2022/09/27 11:10:32;;;;;;;2.10;0.70;;;;;;;16.13;62.40;97878.94;5113219;28;20070;-59
2022/09/27 11:13:18;;;;;;;2.38;0.80;;;;;;;16.29;61.97;97882.53;5113093;28;20048;-57
2022/09/27 11:16:16;;;;;;;2.60;0.82;;;;;;;16.49;61.58;97875.00;5112168;28;20086;-57
2022/09/27 11:18:53;;;;;;;2.10;0.70;;;;;;;16.64;62.08;97874.28;5113028;28;20048;-57
2022/09/27 11:21:46;;;;;;;1.23;0.65;;;;;;;16.67;59.77;97882.72;5111953;28;20116;-60
2022/09/27 11:24:19;;;;;;;2.20;0.70;;;;;;;16.72;59.22;97873.41;5111606;28;20485;-56
2022/09/27 11:26:49;;;;;;;1.95;0.57;;;;;;;16.73;59.90;97881.22;5113044;28;20082;-58
2022/09/27 11:29:40;;;;;;;1.73;0.40;;;;;;;16.84;62.25;97882.66;5112835;28;20086;-58
2022/09/27 11:32:34;;;;;;;1.70;0.63;;;;;;;17.02;59.35;97874.41;5112668;28;20561;-58
2022/09/27 11:35:25;;;;;;;1.67;0.63;;;;;;;17.22;58.97;97878.44;5112856;28;20097;-59
2022/09/27 11:38:22;;;;;;;0.55;0.50;;;;;;;17.30;57.76;97884.53;5112827;28;20081;-59
2022/09/27 11:41:34;;;;;;;2.63;0.60;;;;;;;17.29;55.82;97877.59;5112922;28;20470;-58
2022/09/27 11:44:31;;;;;;;1.30;0.50;;;;;;;17.13;55.68;97883.00;5112456;28;20618;-57
2022/09/27 11:47:15;;;;;;;1.35;0.60;;;;;;;16.94;56.90;97891.22;5112737;28;20449;-57
2022/09/27 11:50:17;;;;;;;3.08;0.80;;;;;;;16.70;56.48;97891.38;5112256;28;20050;-58
2022/09/27 11:53:13;;;;;;;4.32;0.60;;;;;;;16.42;57.12;97904.06;5111231;28;20040;-57
2022/09/27 11:55:46;;;;;;;0.65;0.40;;;;;;;16.17;57.75;97894.50;5112137;27;20452;-59
2022/09/27 11:58:23;;;;;;;2.08;0.70;;;;;;;15.88;58.31;97896.69;5112476;28;20124;-59
2022/09/27 12:00:55;;;;;;;0.60;0.40;;;;;;;15.61;58.89;97904.84;5112194;27;20056;-58
2022/09/27 12:03:59;;;;;;;0.40;0.38;;;;;;;15.35;60.08;97897.03;5112129;28;20051;-57
2022/09/27 12:06:35;;;;;;;2.03;0.55;;;;;;;15.22;61.24;97898.34;5112026;28;20105;-57
2022/09/27 12:09:02;;;;;;;0.77;0.60;;;;;;;15.19;62.45;97895.22;5111916;27;20051;-59